sensor_id;sensor_type;location;lat;lon;timestamp;pressure;altitude;pressure_sealevel;temperature;humidity
80410;BME280;69746;45.596;10.154;2023-09-19T00:01:42;99180.34;;;27.23;50.42
80410;BME280;69746;45.596;10.154;2023-09-19T00:04:12;99173.56;;;27.24;50.33
80410;BME280;69746;45.596;10.154;2023-09-19T00:06:39;99184.78;;;27.24;50.42
80410;BME280;69746;45.596;10.154;2023-09-19T00:09:05;99188.38;;;27.25;50.35
80410;BME280;69746;45.596;10.154;2023-09-19T00:11:37;99181.97;;;27.24;50.56
80410;BME280;69746;45.596;10.154;2023-09-19T00:14:07;99183.16;;;27.23;50.37
80410;BME280;69746;45.596;10.154;2023-09-19T00:16:35;99187.94;;;27.23;50.52
80410;BME280;69746;45.596;10.154;2023-09-19T00:19:01;99177.53;;;27.23;50.45
80410;BME280;69746;45.596;10.154;2023-09-19T00:21:34;99167.16;;;27.24;50.63
80410;BME280;69746;45.596;10.154;2023-09-19T00:24:06;99169.13;;;27.23;50.38
80410;BME280;69746;45.596;10.154;2023-09-19T00:26:32;99163.53;;;27.23;50.42
80410;BME280;69746;45.596;10.154;2023-09-19T00:29:00;99165.53;;;27.23;50.42
80410;BME280;69746;45.596;10.154;2023-09-19T00:31:31;99157.00;;;27.19;50.42
80410;BME280;69746;45.596;10.154;2023-09-19T00:33:57;99153.03;;;27.20;50.71
80410;BME280;69746;45.596;10.154;2023-09-19T00:36:26;99156.31;;;27.22;50.47
80410;BME280;69746;45.596;10.154;2023-09-19T00:38:52;99151.53;;;27.23;50.65
80410;BME280;69746;45.596;10.154;2023-09-19T00:41:18;99157.13;;;27.23;50.28
80410;BME280;69746;45.596;10.154;2023-09-19T00:43:44;99150.72;;;27.22;50.27
80410;BME280;69746;45.596;10.154;2023-09-19T00:46:14;99153.53;;;27.22;50.47
80410;BME280;69746;45.596;10.154;2023-09-19T00:48:42;99149.91;;;27.22;50.42
80410;BME280;69746;45.596;10.154;2023-09-19T00:51:12;99153.53;;;27.22;50.50
80410;BME280;69746;45.596;10.154;2023-09-19T00:53:40;99148.25;;;27.21;50.56
80410;BME280;69746;45.596;10.154;2023-09-19T00:56:14;99156.31;;;27.22;50.46
80410;BME280;69746;45.596;10.154;2023-09-19T00:58:41;99150.72;;;27.22;50.40
80410;BME280;69746;45.596;10.154;2023-09-19T01:01:07;99159.13;;;27.22;50.35
80410;BME280;69746;45.596;10.154;2023-09-19T01:03:39;99151.53;;;27.23;50.30
80410;BME280;69746;45.596;10.154;2023-09-19T01:06:06;99153.53;;;27.22;50.38
80410;BME280;69746;45.596;10.154;2023-09-19T01:08:33;99151.53;;;27.23;50.29
80410;BME280;69746;45.596;10.154;2023-09-19T01:11:18;99151.53;;;27.23;50.49
80410;BME280;69746;45.596;10.154;2023-09-19T01:14:01;99151.53;;;27.23;50.30
80410;BME280;69746;45.596;10.154;2023-09-19T01:16:45;99159.94;;;27.23;50.52
80410;BME280;69746;45.596;10.154;2023-09-19T01:30:09;99171.47;;;27.21;50.39
80410;BME280;69746;45.596;10.154;2023-09-19T01:32:37;99167.84;;;27.21;50.34
80410;BME280;69746;45.596;10.154;2023-09-19T01:35:05;99165.88;;;27.21;50.62
80410;BME280;69746;45.596;10.154;2023-09-19T01:37:31;99167.03;;;27.20;50.32
80410;BME280;69746;45.596;10.154;2023-09-19T01:40:08;99163.06;;;27.21;50.31
80410;BME280;69746;45.596;10.154;2023-09-19T01:51:07;99177.44;;;27.20;50.39
80410;BME280;69746;45.596;10.154;2023-09-19T01:56:38;99181.03;;;27.20;50.52
80410;BME280;69746;45.596;10.154;2023-09-19T01:59:10;99183.03;;;27.20;50.50
80410;BME280;69746;45.596;10.154;2023-09-19T02:01:42;99184.66;;;27.21;50.42
80410;BME280;69746;45.596;10.154;2023-09-19T02:04:10;99187.81;;;27.19;50.50
80410;BME280;69746;45.596;10.154;2023-09-19T02:06:40;99189.44;;;27.20;50.51
80410;BME280;69746;45.596;10.154;2023-09-19T02:09:06;99183.84;;;27.20;50.36
80410;BME280;69746;45.596;10.154;2023-09-19T02:11:32;99183.84;;;27.20;50.29
80410;BME280;69746;45.596;10.154;2023-09-19T02:13:58;99176.25;;;27.21;50.45
80410;BME280;69746;45.596;10.154;2023-09-19T02:16:25;99183.84;;;27.20;50.29
80410;BME280;69746;45.596;10.154;2023-09-19T02:18:53;99175.44;;;27.20;50.40
80410;BME280;69746;45.596;10.154;2023-09-19T02:21:20;99171.00;;;27.19;50.53
80410;BME280;69746;45.596;10.154;2023-09-19T02:23:48;99177.44;;;27.20;50.32
80410;BME280;69746;45.596;10.154;2023-09-19T02:26:14;99175.81;;;27.19;50.49
80410;BME280;69746;45.596;10.154;2023-09-19T02:28:40;99171.81;;;27.20;50.49
80410;BME280;69746;45.596;10.154;2023-09-19T02:31:06;99183.84;;;27.20;50.24
80410;BME280;69746;45.596;10.154;2023-09-19T02:33:35;99176.25;;;27.21;50.15
80410;BME280;69746;45.596;10.154;2023-09-19T02:36:03;99181.03;;;27.20;50.54
80410;BME280;69746;45.596;10.154;2023-09-19T02:38:30;99185.81;;;27.20;50.51
80410;BME280;69746;45.596;10.154;2023-09-19T02:40:56;99178.25;;;27.20;50.25
80410;BME280;69746;45.596;10.154;2023-09-19T02:43:25;99187.44;;;27.21;50.28
80410;BME280;69746;45.596;10.154;2023-09-19T02:45:51;99182.22;;;27.19;50.35
80410;BME280;69746;45.596;10.154;2023-09-19T02:48:21;99177.44;;;27.20;50.50
80410;BME280;69746;45.596;10.154;2023-09-19T02:50:49;99181.03;;;27.20;50.42
80410;BME280;69746;45.596;10.154;2023-09-19T02:53:15;99192.25;;;27.20;50.19
80410;BME280;69746;45.596;10.154;2023-09-19T02:55:42;99182.22;;;27.19;50.51
80410;BME280;69746;45.596;10.154;2023-09-19T02:58:08;99183.41;;;27.18;50.48
80410;BME280;69746;45.596;10.154;2023-09-19T03:00:37;99185.81;;;27.20;50.48
80410;BME280;69746;45.596;10.154;2023-09-19T03:03:04;99195.41;;;27.19;50.52
80410;BME280;69746;45.596;10.154;2023-09-19T03:05:33;99190.63;;;27.19;50.50
80410;BME280;69746;45.596;10.154;2023-09-19T03:07:59;99187.00;;;27.19;50.38
80410;BME280;69746;45.596;10.154;2023-09-19T03:10:28;99179.41;;;27.19;50.53
80410;BME280;69746;45.596;10.154;2023-09-19T03:12:55;99185.03;;;27.19;50.53
80410;BME280;69746;45.596;10.154;2023-09-19T03:15:21;99190.63;;;27.19;50.42
80410;BME280;69746;45.596;10.154;2023-09-19T03:17:48;99182.22;;;27.19;50.40
80410;BME280;69746;45.596;10.154;2023-09-19T03:20:15;99177.78;;;27.18;50.70
80410;BME280;69746;45.596;10.154;2023-09-19T03:22:43;99165.78;;;27.18;50.56
80410;BME280;69746;45.596;10.154;2023-09-19T03:25:09;99177.78;;;27.18;50.36
80410;BME280;69746;45.596;10.154;2023-09-19T03:27:40;99169.38;;;27.18;50.33
80410;BME280;69746;45.596;10.154;2023-09-19T03:30:07;99173.00;;;27.19;50.48
80410;BME280;69746;45.596;10.154;2023-09-19T03:32:43;99166.59;;;27.18;50.49
80410;BME280;69746;45.596;10.154;2023-09-19T03:35:09;99163.78;;;27.18;50.49
80410;BME280;69746;45.596;10.154;2023-09-19T03:37:34;99171.00;;;27.19;50.44
80410;BME280;69746;45.596;10.154;2023-09-19T03:40:00;99168.59;;;27.18;50.34
80410;BME280;69746;45.596;10.154;2023-09-19T03:42:31;99155.75;;;27.17;50.29
80410;BME280;69746;45.596;10.154;2023-09-19T03:44:56;99160.19;;;27.18;50.56
80410;BME280;69746;45.596;10.154;2023-09-19T03:47:22;99157.38;;;27.18;50.59
80410;BME280;69746;45.596;10.154;2023-09-19T03:49:48;99155.38;;;27.18;50.59
80410;BME280;69746;45.596;10.154;2023-09-19T03:52:14;99157.75;;;27.16;50.38
80410;BME280;69746;45.596;10.154;2023-09-19T03:54:41;99158.56;;;27.17;50.50
80410;BME280;69746;45.596;10.154;2023-09-19T03:57:08;99154.13;;;27.16;50.44
80410;BME280;69746;45.596;10.154;2023-09-19T03:59:34;99159.38;;;27.17;50.57
80410;BME280;69746;45.596;10.154;2023-09-19T04:02:01;99155.75;;;27.17;50.59
80410;BME280;69746;45.596;10.154;2023-09-19T04:04:27;99152.97;;;27.17;50.40
80410;BME280;69746;45.596;10.154;2023-09-19T04:06:54;99157.38;;;27.18;50.49
80410;BME280;69746;45.596;10.154;2023-09-19T04:09:20;99150.16;;;27.17;50.57
80410;BME280;69746;45.596;10.154;2023-09-19T04:11:46;99157.75;;;27.16;50.47
80410;BME280;69746;45.596;10.154;2023-09-19T04:14:11;99157.75;;;27.16;50.52
80410;BME280;69746;45.596;10.154;2023-09-19T04:16:37;99152.97;;;27.17;50.44
80410;BME280;69746;45.596;10.154;2023-09-19T04:19:04;99160.53;;;27.16;50.58
80410;BME280;69746;45.596;10.154;2023-09-19T04:21:30;99154.94;;;27.16;50.54
80410;BME280;69746;45.596;10.154;2023-09-19T04:23:56;99157.75;;;27.16;50.47
80410;BME280;69746;45.596;10.154;2023-09-19T04:26:22;99153.31;;;27.15;50.62
80410;BME280;69746;45.596;10.154;2023-09-19T04:28:48;99154.94;;;27.16;50.52
80410;BME280;69746;45.596;10.154;2023-09-19T04:31:14;99149.34;;;27.16;50.58
80410;BME280;69746;45.596;10.154;2023-09-19T04:33:39;99156.94;;;27.16;50.45
80410;BME280;69746;45.596;10.154;2023-09-19T04:36:05;99154.94;;;27.16;50.47
80410;BME280;69746;45.596;10.154;2023-09-19T04:38:33;99159.72;;;27.16;50.52
80410;BME280;69746;45.596;10.154;2023-09-19T04:40:59;99164.53;;;27.15;50.57
80410;BME280;69746;45.596;10.154;2023-09-19T04:43:25;99169.31;;;27.15;50.50
80410;BME280;69746;45.596;10.154;2023-09-19T04:45:51;99171.28;;;27.14;50.42
80410;BME280;69746;45.596;10.154;2023-09-19T04:48:22;99179.34;;;27.16;50.41
80410;BME280;69746;45.596;10.154;2023-09-19T04:50:49;99180.50;;;27.15;50.48
80410;BME280;69746;45.596;10.154;2023-09-19T04:53:15;99184.47;;;27.14;50.65
80410;BME280;69746;45.596;10.154;2023-09-19T04:55:40;99188.09;;;27.14;50.46
80410;BME280;69746;45.596;10.154;2023-09-19T04:58:06;99192.53;;;27.15;50.50
80410;BME280;69746;45.596;10.154;2023-09-19T05:00:32;99202.09;;;27.14;50.38
80410;BME280;69746;45.596;10.154;2023-09-19T05:03:00;99204.09;;;27.14;50.49
80410;BME280;69746;45.596;10.154;2023-09-19T05:05:26;99210.50;;;27.14;50.63
80410;BME280;69746;45.596;10.154;2023-09-19T05:07:52;99214.09;;;27.15;50.55
80410;BME280;69746;45.596;10.154;2023-09-19T05:10:22;99211.66;;;27.13;50.57
80410;BME280;69746;45.596;10.154;2023-09-19T05:12:53;99212.84;;;27.12;50.58
80410;BME280;69746;45.596;10.154;2023-09-19T05:15:21;99220.88;;;27.14;50.71
80410;BME280;69746;45.596;10.154;2023-09-19T05:17:48;99217.28;;;27.13;50.56
80410;BME280;69746;45.596;10.154;2023-09-19T05:20:15;99218.44;;;27.12;50.76
80410;BME280;69746;45.596;10.154;2023-09-19T05:22:43;99219.25;;;27.13;50.82
80410;BME280;69746;45.596;10.154;2023-09-19T05:25:10;99228.47;;;27.13;50.72
80410;BME280;69746;45.596;10.154;2023-09-19T05:27:39;99221.25;;;27.12;50.73
80410;BME280;69746;45.596;10.154;2023-09-19T05:30:06;99224.84;;;27.13;50.87
80410;BME280;69746;45.596;10.154;2023-09-19T05:32:32;99226.84;;;27.12;50.55
80410;BME280;69746;45.596;10.154;2023-09-19T05:34:58;99231.63;;;27.12;50.72
80410;BME280;69746;45.596;10.154;2023-09-19T05:37:24;99229.66;;;27.12;50.82
80410;BME280;69746;45.596;10.154;2023-09-19T05:39:51;99231.28;;;27.13;50.81
80410;BME280;69746;45.596;10.154;2023-09-19T05:42:19;99226.03;;;27.12;50.76
80410;BME280;69746;45.596;10.154;2023-09-19T05:44:45;99230.81;;;27.11;50.57
80410;BME280;69746;45.596;10.154;2023-09-19T05:47:11;99249.25;;;27.12;50.58
80410;BME280;69746;45.596;10.154;2023-09-19T05:49:38;99252.03;;;27.12;50.87
80410;BME280;69746;45.596;10.154;2023-09-19T05:52:07;99256.03;;;27.11;50.77
80410;BME280;69746;45.596;10.154;2023-09-19T05:54:33;99254.03;;;27.12;50.50
80410;BME280;69746;45.596;10.154;2023-09-19T05:57:02;99256.84;;;27.12;50.85
80410;BME280;69746;45.596;10.154;2023-09-19T05:59:28;99260.44;;;27.12;50.77
